Time;durP1;ratioP1;P1;durP2;ratioP2;P2;SDS_P1;SDS_P2;PMS_P1;PMS_P2;Temp;Humidity;BMP_temperature;BMP_pressure;BME280_temperature;BME280_humidity;BME280_pressure;Samples;Min_cycle;Max_cycle;Signal;HPM_P1;HPM_P2
2022/01/11 00:01:26;;;;;;;33.35;15.75;;;0.90;77.00;;;;;;4992712;28;20080;-74
2022/01/11 00:03:53;;;;;;;34.30;16.35;;;0.80;76.70;;;;;;4977266;28;20038;-74
2022/01/11 00:08:48;;;;;;;26.75;12.52;;;0.80;77.10;;;;;;4994537;28;20387;-74
2022/01/11 00:11:15;;;;;;;31.13;14.43;;;0.90;77.10;;;;;;4976903;28;20563;-75
2022/01/11 00:13:42;;;;;;;23.15;11.57;;;0.90;77.10;;;;;;4976931;28;20045;-75
2022/01/11 00:16:18;;;;;;;28.52;12.15;;;0.90;77.20;;;;;;4993161;28;20053;-73
2022/01/11 00:18:44;;;;;;;26.63;13.55;;;0.90;76.90;;;;;;4976794;28;20475;-75
2022/01/11 00:21:12;;;;;;;24.90;12.68;;;0.90;76.70;;;;;;5017640;28;20026;-74
2022/01/11 00:26:06;;;;;;;28.60;13.23;;;1.00;76.80;;;;;;5013913;28;20060;-74
2022/01/11 00:28:34;;;;;;;33.95;14.52;;;1.00;76.40;;;;;;5013639;28;20156;-74
2022/01/11 00:31:03;;;;;;;27.90;14.07;;;1.00;76.40;;;;;;5014060;28;20034;-76
2022/01/11 00:33:37;;;;;;;36.20;14.98;;;1.00;76.60;;;;;;5013813;28;20141;-74
2022/01/11 00:36:06;;;;;;;28.88;15.30;;;1.00;76.60;;;;;;5013733;28;20467;-73
2022/01/11 00:38:36;;;;;;;30.70;13.18;;;1.00;76.20;;;;;;5014145;28;20045;-74
2022/01/11 00:41:06;;;;;;;33.83;15.23;;;1.00;76.30;;;;;;5012703;28;20107;-74
2022/01/11 00:43:42;;;;;;;31.15;14.77;;;1.00;76.50;;;;;;4995920;28;20033;-73
2022/01/11 00:46:10;;;;;;;32.10;14.52;;;1.00;76.40;;;;;;4995858;28;20033;-72
2022/01/11 00:48:40;;;;;;;31.50;15.10;;;1.00;76.60;;;;;;5012257;28;20483;-73
2022/01/11 00:51:06;;;;;;;26.60;13.63;;;1.00;76.50;;;;;;4995705;28;20037;-72
2022/01/11 00:53:35;;;;;;;29.10;13.35;;;1.00;76.70;;;;;;5012280;28;20030;-74
2022/01/11 00:56:01;;;;;;;35.50;14.75;;;0.90;76.40;;;;;;5013692;28;20022;-75
2022/01/11 00:58:28;;;;;;;36.95;14.52;;;0.90;76.50;;;;;;4996233;28;20111;-74
2022/01/11 01:00:57;;;;;;;31.90;14.77;;;0.80;76.70;;;;;;5015140;28;20021;-74
2022/01/11 01:03:22;;;;;;;30.80;13.77;;;0.80;76.80;;;;;;5033420;28;20489;-73
2022/01/11 01:05:51;;;;;;;30.98;14.95;;;0.70;77.00;;;;;;5015502;28;20095;-73
2022/01/11 01:08:18;;;;;;;32.30;14.95;;;0.60;78.10;;;;;;5033388;28;20096;-75
2022/01/11 01:10:48;;;;;;;33.63;14.75;;;0.60;77.60;;;;;;5031830;28;20034;-74
2022/01/11 01:13:27;;;;;;;33.05;14.20;;;0.50;77.90;;;;;;5018019;28;20045;-74
2022/01/11 01:15:55;;;;;;;39.30;15.82;;;0.50;78.20;;;;;;5036093;28;20054;-73
2022/01/11 01:18:25;;;;;;;31.55;15.98;;;0.40;78.50;;;;;;5019382;28;20044;-74
2022/01/11 01:20:53;;;;;;;31.77;14.65;;;0.40;78.90;;;;;;5019313;28;20041;-74
2022/01/11 01:23:22;;;;;;;39.38;17.42;;;0.30;79.60;;;;;;5035698;28;20033;-74
2022/01/11 01:25:48;;;;;;;40.17;16.60;;;0.20;80.30;;;;;;5035398;28;20176;-74
2022/01/11 01:28:16;;;;;;;34.67;16.02;;;0.10;81.00;;;;;;5018812;28;20021;-73
2022/01/11 01:30:44;;;;;;;37.60;16.27;;;0.10;81.60;;;;;;5036712;28;20034;-74
2022/01/11 01:33:10;;;;;;;42.85;17.17;;;0.10;82.10;;;;;;5036785;28;20093;-73
2022/01/11 01:35:42;;;;;;;46.78;17.65;;;0.00;82.60;;;;;;5018867;28;20042;-75
2022/01/11 01:38:10;;;;;;;44.72;19.02;;;0.00;83.30;;;;;;5036576;28;20021;-75
2022/01/11 01:40:54;;;;;;;49.22;19.75;;;-0.10;84.10;;;;;;5036487;28;20064;-74
2022/01/11 01:43:24;;;;;;;45.38;18.00;;;-0.10;84.70;;;;;;5018664;28;20028;-73
2022/01/11 01:45:52;;;;;;;50.70;21.50;;;-0.20;85.30;;;;;;5018695;28;20088;-75
2022/01/11 01:48:19;;;;;;;44.90;19.27;;;-0.20;85.90;;;;;;5034736;28;20017;-75
2022/01/11 01:50:48;;;;;;;47.72;19.83;;;-0.20;86.20;;;;;;5036340;28;20466;-73
2022/01/11 01:53:16;;;;;;;46.53;20.38;;;-0.20;86.40;;;;;;5018460;28;20018;-74
2022/01/11 01:55:44;;;;;;;51.72;20.42;;;-0.20;86.80;;;;;;5018544;28;20390;-74
2022/01/11 01:58:11;;;;;;;57.45;23.05;;;-0.20;86.90;;;;;;5036384;28;20039;-73
2022/01/11 02:00:43;;;;;;;49.63;21.75;;;-0.30;86.80;;;;;;5035030;28;20029;-74
2022/01/11 02:03:25;;;;;;;45.53;20.90;;;-0.30;87.00;;;;;;5034936;28;20033;-74
2022/01/11 02:05:54;;;;;;;47.53;19.70;;;-0.40;88.00;;;;;;5036031;28;20125;-73
2022/01/11 02:08:21;;;;;;;56.20;23.83;;;-0.40;87.30;;;;;;5017976;28;20038;-73
2022/01/11 02:10:49;;;;;;;47.72;21.73;;;-0.50;87.70;;;;;;5034784;28;20470;-73
2022/01/11 02:13:17;;;;;;;53.45;23.30;;;-0.60;87.80;;;;;;5018211;28;20406;-74
2022/01/11 02:15:53;;;;;;;57.38;23.30;;;-0.60;88.00;;;;;;5018226;28;20484;-74
2022/01/11 02:18:28;;;;;;;62.67;23.92;;;-0.70;88.30;;;;;;5034494;28;20022;-74
2022/01/11 02:21:03;;;;;;;54.60;22.58;;;-0.80;88.50;;;;;;5018416;28;20030;-74
2022/01/11 02:23:31;;;;;;;53.08;22.52;;;-0.80;88.80;;;;;;5016946;28;20025;-74
2022/01/11 02:25:59;;;;;;;58.70;23.88;;;-0.90;89.10;;;;;;5017978;28;20037;-74
2022/01/11 02:28:27;;;;;;;53.15;22.42;;;-1.00;89.20;;;;;;5035637;28;20026;-75
2022/01/11 02:30:54;;;;;;;59.75;24.92;;;-1.00;89.60;;;;;;5035442;28;20478;-73
2022/01/11 02:33:44;;;;;;;64.18;25.15;;;-1.10;89.90;;;;;;5034439;28;20017;-73
2022/01/11 02:36:18;;;;;;;58.40;24.40;;;-1.10;90.00;;;;;;5035492;28;20047;-74
2022/01/11 02:38:50;;;;;;;55.03;22.75;;;-1.20;90.10;;;;;;5034313;28;20013;-74
2022/01/11 02:41:17;;;;;;;71.75;26.25;;;-1.20;90.30;;;;;;5035851;28;20037;-74
2022/01/11 02:43:47;;;;;;;62.85;25.65;;;-1.30;90.40;;;;;;5034364;28;20102;-74
2022/01/11 02:46:16;;;;;;;57.60;24.23;;;-1.40;90.60;;;;;;5017443;28;20040;-74
2022/01/11 02:48:44;;;;;;;67.75;25.83;;;-1.40;90.70;;;;;;5034166;28;20041;-74
2022/01/11 02:51:11;;;;;;;69.57;28.13;;;-1.50;90.80;;;;;;5035205;28;20037;-74
2022/01/11 02:53:43;;;;;;;63.65;26.38;;;-1.50;91.00;;;;;;5017377;28;20055;-73
2022/01/11 02:56:11;;;;;;;67.55;27.85;;;-1.60;91.10;;;;;;5017328;28;20030;-75
2022/01/11 02:58:38;;;;;;;63.15;27.58;;;-1.70;91.30;;;;;;5035538;28;20022;-74
2022/01/11 03:01:04;;;;;;;63.55;27.20;;;-1.70;91.50;;;;;;5035205;28;20026;-74
2022/01/11 03:03:31;;;;;;;64.80;26.48;;;-1.70;91.70;;;;;;5035137;28;20033;-74
2022/01/11 03:06:03;;;;;;;65.57;27.08;;;-1.80;91.80;;;;;;5017259;28;20108;-74
2022/01/11 03:08:38;;;;;;;74.93;28.80;;;-1.80;91.90;;;;;;5017156;28;20406;-74
2022/01/11 03:11:07;;;;;;;68.25;27.42;;;-1.80;92.00;;;;;;5033666;28;20030;-74
2022/01/11 03:13:35;;;;;;;67.45;27.13;;;-1.90;92.00;;;;;;5033537;28;20017;-74
2022/01/11 03:16:10;;;;;;;72.65;28.30;;;-1.90;92.10;;;;;;5017100;28;20367;-74
2022/01/11 03:18:38;;;;;;;72.60;26.92;;;-1.90;92.20;;;;;;5016993;28;20501;-73
2022/01/11 03:21:06;;;;;;;84.68;29.45;;;-2.00;92.20;;;;;;5035077;28;20021;-74
2022/01/11 03:23:34;;;;;;;72.43;28.33;;;-2.00;92.30;;;;;;5034354;28;20032;-74
2022/01/11 03:26:02;;;;;;;86.82;31.75;;;-2.00;92.40;;;;;;5034732;28;20375;-73
2022/01/11 03:28:37;;;;;;;77.85;28.58;;;-2.00;92.50;;;;;;5033206;28;20017;-74
2022/01/11 03:31:05;;;;;;;82.68;30.65;;;-2.10;92.60;;;;;;5016514;28;20083;-74
2022/01/11 03:33:33;;;;;;;69.80;28.73;;;-2.10;92.70;;;;;;5016823;28;20021;-74
2022/01/11 03:36:00;;;;;;;77.88;29.63;;;-2.10;92.70;;;;;;5015627;28;20099;-74
2022/01/11 03:38:27;;;;;;;73.88;29.67;;;-2.10;92.80;;;;;;5033188;28;20408;-74
2022/01/11 03:40:54;;;;;;;81.78;31.17;;;-2.20;92.70;;;;;;5034557;28;20040;-73
2022/01/11 03:43:22;;;;;;;85.18;31.80;;;-2.20;92.90;;;;;;5034643;28;20026;-73
2022/01/11 03:45:50;;;;;;;74.68;31.52;;;-2.20;92.90;;;;;;5034406;28;20033;-73
2022/01/11 03:48:19;;;;;;;76.50;30.92;;;-2.20;92.90;;;;;;5033006;28;20029;-73
2022/01/11 03:50:52;;;;;;;84.88;31.38;;;-2.30;92.90;;;;;;5034003;28;20049;-73
2022/01/11 03:53:24;;;;;;;75.28;32.75;;;-2.30;93.00;;;;;;5034177;28;20021;-73
2022/01/11 03:58:25;;;;;;;81.28;31.13;;;-2.30;93.10;;;;;;5034290;28;20478;-73
2022/01/11 04:00:53;;;;;;;78.13;30.95;;;-2.40;93.20;;;;;;5016053;28;20021;-74
2022/01/11 04:03:20;;;;;;;83.82;34.40;;;-2.40;93.30;;;;;;5016189;28;20022;-74
2022/01/11 04:05:47;;;;;;;84.20;31.67;;;-2.40;93.40;;;;;;5033881;28;20116;-73
2022/01/11 04:08:14;;;;;;;86.95;33.33;;;-2.40;93.40;;;;;;5032620;28;20036;-74
2022/01/11 04:10:41;;;;;;;85.78;34.40;;;-2.40;93.50;;;;;;5034188;28;20025;-75
2022/01/11 04:13:08;;;;;;;82.13;33.47;;;-2.40;93.60;;;;;;5033763;28;20028;-73
2022/01/11 04:15:35;;;;;;;85.68;31.65;;;-2.40;93.60;;;;;;5033691;28;20025;-75
2022/01/11 04:18:03;;;;;;;87.13;33.03;;;-2.50;93.70;;;;;;5015845;28;20573;-74
2022/01/11 04:20:30;;;;;;;86.40;32.65;;;-2.40;93.80;;;;;;5015905;28;20017;-75
2022/01/11 04:22:57;;;;;;;74.47;33.63;;;-2.50;93.80;;;;;;5015841;28;20112;-73
2022/01/11 04:25:22;;;;;;;84.00;31.63;;;-2.50;93.80;;;;;;5033349;28;20042;-75
2022/01/11 04:27:49;;;;;;;81.07;33.55;;;-2.50;94.20;;;;;;5032274;28;20028;-75
2022/01/11 04:30:17;;;;;;;89.53;34.20;;;-2.50;93.80;;;;;;5033396;28;20462;-74
2022/01/11 04:32:44;;;;;;;91.35;31.95;;;-2.50;93.80;;;;;;5033286;28;20386;-75
2022/01/11 04:35:13;;;;;;;89.72;34.13;;;-2.60;93.90;;;;;;5033449;28;20036;-75
2022/01/11 04:37:39;;;;;;;85.07;33.17;;;-2.60;94.00;;;;;;5013612;28;20025;-75
2022/01/11 04:40:06;;;;;;;83.22;34.35;;;-2.60;94.00;;;;;;5027692;28;20035;-74
2022/01/11 04:42:33;;;;;;;89.88;36.53;;;-2.60;94.10;;;;;;5033333;28;20026;-75
2022/01/11 04:45:01;;;;;;;82.45;33.80;;;-2.60;94.10;;;;;;5015714;28;20034;-73
2022/01/11 04:47:27;;;;;;;86.43;32.88;;;-2.60;94.10;;;;;;5015183;28;20112;-74
2022/01/11 04:49:55;;;;;;;89.45;33.67;;;-2.60;94.30;;;;;;5033409;28;20014;-73
2022/01/11 04:52:22;;;;;;;87.65;32.92;;;-2.70;94.30;;;;;;5033371;28;20021;-75
2022/01/11 04:54:49;;;;;;;86.28;31.55;;;-2.70;94.30;;;;;;5033157;28;20602;-73
2022/01/11 04:57:16;;;;;;;80.43;32.35;;;-2.70;94.30;;;;;;5033189;28;20018;-73
2022/01/11 04:59:43;;;;;;;85.95;33.00;;;-2.70;94.40;;;;;;5015256;28;20053;-74
2022/01/11 05:02:11;;;;;;;117.45;36.65;;;-2.70;94.50;;;;;;4999468;28;20112;-74
2022/01/11 05:04:39;;;;;;;83.90;33.97;;;-2.70;94.50;;;;;;5033102;28;20029;-75
2022/01/11 05:07:05;;;;;;;74.88;30.92;;;-2.70;94.60;;;;;;5015430;28;20080;-74
2022/01/11 05:09:33;;;;;;;98.03;34.50;;;-2.70;94.60;;;;;;5033260;28;20152;-74
2022/01/11 05:12:00;;;;;;;97.15;36.20;;;-2.70;94.70;;;;;;5015388;28;20036;-74
2022/01/11 05:14:28;;;;;;;89.10;33.80;;;-2.70;94.70;;;;;;5015376;28;20022;-74
2022/01/11 05:16:54;;;;;;;106.30;34.70;;;-2.80;94.90;;;;;;5015322;28;20505;-75
2022/01/11 05:19:22;;;;;;;107.45;37.03;;;-2.80;94.60;;;;;;5032936;28;20025;-75
2022/01/11 05:21:50;;;;;;;94.78;38.60;;;-2.80;94.70;;;;;;5015197;28;20022;-74
2022/01/11 05:24:17;;;;;;;110.22;40.22;;;-2.80;94.80;;;;;;5020821;28;20057;-75
2022/01/11 05:26:45;;;;;;;107.35;40.00;;;-2.80;94.90;;;;;;5013417;28;20056;-74
2022/01/11 05:29:13;;;;;;;125.00;47.92;;;-2.80;95.00;;;;;;5013114;28;20050;-74
2022/01/11 05:31:39;;;;;;;123.25;47.00;;;-2.80;95.00;;;;;;5017271;28;20097;-75
2022/01/11 05:34:07;;;;;;;162.88;62.25;;;-2.80;95.00;;;;;;5012904;28;20350;-74
2022/01/11 05:36:34;;;;;;;155.55;57.15;;;-2.80;95.10;;;;;;5021439;28;20021;-76
2022/01/11 05:39:12;;;;;;;133.05;55.35;;;-2.80;95.10;;;;;;5014963;28;20030;-74
2022/01/11 05:41:38;;;;;;;144.45;58.17;;;-2.80;95.20;;;;;;4993357;28;20441;-74
2022/01/11 05:44:07;;;;;;;138.07;50.97;;;-2.90;95.20;;;;;;4975883;28;20019;-75
2022/01/11 05:46:34;;;;;;;128.05;46.88;;;-2.90;95.20;;;;;;4993341;28;20010;-74
2022/01/11 05:49:02;;;;;;;135.25;51.20;;;-2.90;95.60;;;;;;4993263;28;20446;-74
2022/01/11 05:51:29;;;;;;;143.75;55.95;;;-2.90;95.30;;;;;;4993091;28;20069;-73
2022/01/11 05:53:57;;;;;;;141.48;51.80;;;-3.00;95.40;;;;;;4991857;28;20026;-74
2022/01/11 05:56:25;;;;;;;125.45;52.40;;;-3.00;95.50;;;;;;4993076;28;20046;-75
2022/01/11 05:58:52;;;;;;;128.68;54.33;;;-3.00;96.00;;;;;;4992210;28;20113;-75
2022/01/11 06:01:19;;;;;;;123.78;49.13;;;-3.00;95.80;;;;;;4997361;28;20023;-77
2022/01/11 06:03:47;;;;;;;108.15;46.90;;;-3.10;95.80;;;;;;4997690;28;20150;-76
2022/01/11 06:06:12;;;;;;;108.13;42.08;;;-3.10;95.80;;;;;;4979850;28;20025;-75
2022/01/11 06:08:38;;;;;;;114.97;44.60;;;-3.10;95.90;;;;;;4985591;28;20030;-75
2022/01/11 06:11:06;;;;;;;119.13;44.03;;;-3.10;95.90;;;;;;4980137;28;20109;-74
2022/01/11 06:13:32;;;;;;;164.45;64.53;;;-3.10;96.00;;;;;;4979297;28;20026;-73
2022/01/11 06:15:58;;;;;;;125.75;50.30;;;-3.10;96.10;;;;;;4979813;28;20023;-74
2022/01/11 06:18:25;;;;;;;128.25;50.78;;;-3.10;96.00;;;;;;4979958;28;20061;-73
2022/01/11 06:20:50;;;;;;;109.15;42.00;;;-3.10;95.90;;;;;;4997574;28;20027;-74
2022/01/11 06:23:18;;;;;;;108.93;41.17;;;-3.10;95.90;;;;;;4998745;28;20117;-74
2022/01/11 06:25:45;;;;;;;109.38;41.17;;;-3.10;96.30;;;;;;5031105;28;20390;-72
2022/01/11 06:28:12;;;;;;;106.57;41.13;;;-3.10;95.90;;;;;;5028488;28;20435;-74
2022/01/11 06:30:39;;;;;;;110.38;41.65;;;-3.10;96.00;;;;;;5017590;28;20474;-73
2022/01/11 06:33:08;;;;;;;110.82;41.90;;;-3.10;96.00;;;;;;5035353;28;20470;-73
2022/01/11 06:35:36;;;;;;;105.80;40.67;;;-3.20;96.10;;;;;;5035320;28;20052;-74
2022/01/11 06:38:24;;;;;;;114.05;40.60;;;-3.20;96.10;;;;;;5017766;28;20342;-78
2022/01/11 06:40:52;;;;;;;115.47;42.40;;;-3.20;96.10;;;;;;5017779;28;20037;-78
2022/01/11 06:43:19;;;;;;;118.13;46.15;;;-3.20;96.30;;;;;;5035784;28;20026;-78
2022/01/11 06:45:45;;;;;;;115.32;46.30;;;-3.10;96.40;;;;;;5016169;28;20140;-78
2022/01/11 06:48:10;;;;;;;127.32;48.70;;;-3.10;96.30;;;;;;5017949;28;20037;-79
2022/01/11 06:50:37;;;;;;;129.80;49.38;;;-3.10;96.30;;;;;;5033980;28;20028;-78
2022/01/11 06:53:03;;;;;;;138.15;50.53;;;-3.00;96.20;;;;;;5031825;28;20421;-79
2022/01/11 06:55:29;;;;;;;143.38;52.13;;;-3.00;96.10;;;;;;5033579;28;20493;-79
2022/01/11 06:57:55;;;;;;;157.77;56.45;;;-3.00;96.00;;;;;;5015246;28;20021;-78
2022/01/11 07:00:21;;;;;;;152.85;55.15;;;-2.90;96.00;;;;;;5014935;28;20030;-78
2022/01/11 07:02:49;;;;;;;138.13;53.42;;;-2.90;95.80;;;;;;5032783;28;20123;-78
2022/01/11 07:05:18;;;;;;;129.85;48.13;;;-2.90;95.80;;;;;;5033517;28;20553;-78
2022/01/11 07:07:44;;;;;;;131.05;51.78;;;-2.90;95.60;;;;;;5034849;28;20125;-79
2022/01/11 07:10:10;;;;;;;114.20;44.03;;;-2.80;95.50;;;;;;5034685;28;20525;-79
2022/01/11 07:12:35;;;;;;;121.00;46.10;;;-2.80;95.30;;;;;;5035294;28;20100;-79
2022/01/11 07:15:02;;;;;;;115.35;45.17;;;-2.80;95.00;;;;;;5035668;28;20075;-77
2022/01/11 07:17:27;;;;;;;119.72;47.78;;;-2.70;95.00;;;;;;5034848;28;20034;-77
2022/01/11 07:19:53;;;;;;;128.77;49.45;;;-2.70;95.00;;;;;;5034687;28;20060;-78
2022/01/11 07:22:19;;;;;;;121.93;46.80;;;-2.70;94.90;;;;;;5016681;28;20025;-79
2022/01/11 07:24:44;;;;;;;129.75;45.80;;;-2.70;95.30;;;;;;5034425;28;20050;-79
2022/01/11 07:27:10;;;;;;;133.73;48.30;;;-2.60;94.80;;;;;;5034840;28;20037;-78
2022/01/11 07:29:36;;;;;;;133.00;53.15;;;-2.60;94.70;;;;;;5034482;28;20548;-77
2022/01/11 07:32:02;;;;;;;124.32;45.92;;;-2.60;94.70;;;;;;5034437;28;20025;-77
2022/01/11 07:34:28;;;;;;;134.90;46.20;;;-2.50;94.90;;;;;;5034411;28;20036;-78
2022/01/11 07:36:53;;;;;;;109.88;45.00;;;-2.50;94.20;;;;;;5034334;28;20064;-77
2022/01/11 07:39:19;;;;;;;120.82;43.70;;;-2.50;94.00;;;;;;5016449;28;20029;-77
2022/01/11 07:41:45;;;;;;;126.28;46.55;;;-2.40;93.80;;;;;;5034379;28;20160;-78
2022/01/11 07:44:11;;;;;;;111.53;44.20;;;-2.40;93.70;;;;;;5034272;28;20467;-78
2022/01/11 07:46:38;;;;;;;118.70;47.35;;;-2.40;93.50;;;;;;5033000;28;20041;-79
2022/01/11 07:49:05;;;;;;;117.35;43.78;;;-2.40;93.30;;;;;;5034150;28;20108;-78
2022/01/11 07:51:31;;;;;;;112.53;42.78;;;-2.40;93.10;;;;;;5033883;28;20025;-79
2022/01/11 07:53:56;;;;;;;115.35;43.78;;;-2.30;93.20;;;;;;5016188;28;20380;-78
2022/01/11 07:56:22;;;;;;;114.03;43.13;;;-2.30;93.20;;;;;;5034339;28;20405;-78
2022/01/11 07:58:48;;;;;;;115.40;44.70;;;-2.20;93.20;;;;;;5034137;28;20024;-78
2022/01/11 08:01:13;;;;;;;103.63;42.70;;;-2.20;93.20;;;;;;5016381;28;20060;-76
2022/01/11 08:03:39;;;;;;;117.03;43.67;;;-2.10;93.00;;;;;;5033805;28;20025;-78
2022/01/11 08:06:05;;;;;;;110.47;42.95;;;-2.00;92.60;;;;;;5033532;28;20029;-79
2022/01/11 08:08:31;;;;;;;125.95;48.30;;;-2.00;92.40;;;;;;5033781;28;20489;-78
2022/01/11 08:10:58;;;;;;;112.55;44.75;;;-2.00;92.20;;;;;;5033897;28;20432;-78
2022/01/11 08:13:24;;;;;;;118.38;44.35;;;-1.90;92.30;;;;;;5033714;28;20021;-77
2022/01/11 08:15:50;;;;;;;122.68;46.50;;;-1.90;92.10;;;;;;5033601;28;20079;-77
2022/01/11 08:18:15;;;;;;;115.22;47.67;;;-1.80;91.90;;;;;;5015859;28;20021;-78
2022/01/11 08:20:43;;;;;;;103.22;46.38;;;-1.80;91.90;;;;;;5033513;28;20029;-78
2022/01/11 08:23:10;;;;;;;111.07;43.35;;;-1.70;91.80;;;;;;5033095;28;20014;-78
2022/01/11 08:25:37;;;;;;;119.55;44.25;;;-1.70;91.60;;;;;;5015642;28;20053;-79
2022/01/11 08:28:03;;;;;;;121.25;45.63;;;-1.60;91.70;;;;;;5033637;28;20018;-78
2022/01/11 08:30:29;;;;;;;119.82;44.45;;;-1.50;91.50;;;;;;5033420;28;20026;-77
2022/01/11 08:32:54;;;;;;;117.32;43.70;;;-1.50;91.50;;;;;;5033465;28;20351;-79
2022/01/11 08:35:21;;;;;;;125.10;48.97;;;-1.50;91.10;;;;;;5033211;28;20045;-78
2022/01/11 08:37:46;;;;;;;120.28;46.95;;;-1.40;91.20;;;;;;5015558;28;20017;-79
2022/01/11 08:40:13;;;;;;;107.18;45.90;;;-1.30;91.60;;;;;;5018177;28;20398;-73
2022/01/11 08:42:39;;;;;;;121.43;47.60;;;-1.20;91.50;;;;;;4996048;28;20022;-78
2022/01/11 08:45:05;;;;;;;110.93;46.50;;;-1.10;91.60;;;;;;5008167;28;20161;-74
2022/01/11 08:47:32;;;;;;;121.00;46.85;;;-0.90;92.00;;;;;;4999098;28;20062;-76
2022/01/11 08:49:59;;;;;;;120.80;48.70;;;-0.70;92.00;;;;;;4991789;28;20088;-74
2022/01/11 08:52:26;;;;;;;117.03;45.85;;;-0.50;92.00;;;;;;4993813;28;20467;-76
2022/01/11 08:54:52;;;;;;;107.28;43.50;;;-0.30;91.80;;;;;;4992386;28;20057;-77
2022/01/11 08:57:19;;;;;;;104.93;45.67;;;-0.10;90.70;;;;;;4993859;28;20056;-73
2022/01/11 08:59:45;;;;;;;105.63;42.03;;;-0.10;90.40;;;;;;4976184;28;20030;-73
2022/01/11 09:02:11;;;;;;;95.10;42.35;;;0.10;90.20;;;;;;4993393;28;20053;-76
2022/01/11 09:04:37;;;;;;;93.30;39.88;;;0.20;90.00;;;;;;4992150;28;20065;-78
2022/01/11 09:07:03;;;;;;;94.85;43.38;;;0.30;88.20;;;;;;4993555;28;20030;-75
2022/01/11 09:09:31;;;;;;;101.78;41.50;;;0.50;86.60;;;;;;4976022;28;20026;-75
2022/01/11 09:11:57;;;;;;;105.38;44.70;;;0.60;86.90;;;;;;4993519;28;20015;-75
2022/01/11 09:14:23;;;;;;;112.45;47.15;;;0.70;86.50;;;;;;4993420;28;20022;-75
2022/01/11 09:16:50;;;;;;;107.68;46.83;;;0.90;86.50;;;;;;4976000;28;20121;-76
2022/01/11 09:19:18;;;;;;;122.13;48.15;;;1.00;85.20;;;;;;4976202;28;20050;-76
2022/01/11 09:21:44;;;;;;;96.30;44.42;;;1.10;84.20;;;;;;4976354;28;20399;-77
2022/01/11 09:24:12;;;;;;;104.78;41.28;;;1.20;83.30;;;;;;4993004;28;20051;-75
2022/01/11 09:26:39;;;;;;;110.00;43.80;;;1.30;83.60;;;;;;4992314;28;20448;-75
2022/01/11 09:29:05;;;;;;;102.53;42.88;;;1.50;82.90;;;;;;4993379;28;20031;-77
2022/01/11 09:31:30;;;;;;;91.82;40.33;;;1.50;81.50;;;;;;4976466;28;20023;-77
2022/01/11 09:33:56;;;;;;;97.28;43.13;;;1.60;80.70;;;;;;4999315;28;20082;-76
2022/01/11 09:36:22;;;;;;;99.22;43.28;;;1.60;80.40;;;;;;4997513;28;20105;-76
2022/01/11 09:38:47;;;;;;;107.38;45.88;;;1.70;80.80;;;;;;4979750;28;20014;-73
2022/01/11 09:41:13;;;;;;;95.55;43.42;;;1.80;80.30;;;;;;4996857;28;20475;-73
2022/01/11 09:43:39;;;;;;;96.55;40.50;;;1.90;79.80;;;;;;4996839;28;20026;-73
2022/01/11 09:46:04;;;;;;;85.60;41.17;;;2.00;79.20;;;;;;5014069;28;20029;-76
2022/01/11 09:48:32;;;;;;;89.78;40.35;;;2.10;79.10;;;;;;5018457;28;20103;-77
2022/01/11 09:50:59;;;;;;;100.35;40.50;;;2.20;78.50;;;;;;4998662;28;20374;-76
2022/01/11 09:53:25;;;;;;;99.00;41.95;;;2.30;78.30;;;;;;5016104;28;20072;-76
2022/01/11 09:55:52;;;;;;;89.60;40.10;;;2.50;78.20;;;;;;5022080;28;20041;-73
2022/01/11 09:58:18;;;;;;;85.78;39.72;;;2.60;77.50;;;;;;5035871;28;20052;-76
2022/01/11 10:00:43;;;;;;;91.00;39.22;;;2.70;77.10;;;;;;5035858;28;20018;-75
2022/01/11 10:03:09;;;;;;;90.00;39.28;;;2.80;76.90;;;;;;5018156;28;20410;-75
2022/01/11 10:05:36;;;;;;;90.25;37.10;;;3.00;76.00;;;;;;5035771;28;20033;-75
2022/01/11 10:08:27;;;;;;;88.03;37.53;;;3.10;74.70;;;;;;5036485;28;20021;-75
2022/01/11 10:10:54;;;;;;;72.78;33.85;;;3.10;74.60;;;;;;5023881;28;20486;-77
2022/01/11 10:13:40;;;;;;;59.25;29.60;;;3.20;75.00;;;;;;5014158;28;20037;-74
2022/01/11 10:16:26;;;;;;;74.97;35.60;;;3.30;73.70;;;;;;4993164;28;20125;-75
2022/01/11 10:18:54;;;;;;;79.60;36.88;;;3.30;73.70;;;;;;5014879;28;20033;-75
2022/01/11 10:21:41;;;;;;;85.22;37.78;;;3.40;74.00;;;;;;5015406;28;20049;-75
2022/01/11 10:24:33;;;;;;;78.68;37.13;;;3.50;72.90;;;;;;5015713;28;20046;-72
2022/01/11 10:27:14;;;;;;;85.50;37.50;;;3.50;73.10;;;;;;5015949;28;20076;-73
2022/01/11 10:29:43;;;;;;;86.38;38.83;;;3.50;73.50;;;;;;4999579;28;20038;-73
2022/01/11 10:32:30;;;;;;;77.88;38.15;;;3.40;73.00;;;;;;5015431;28;20101;-74
2022/01/11 10:34:59;;;;;;;91.43;40.20;;;3.40;73.60;;;;;;5015743;28;20506;-73
2022/01/11 10:37:32;;;;;;;88.85;39.17;;;3.30;73.70;;;;;;5015379;28;20022;-74
2022/01/11 10:40:22;;;;;;;93.45;40.20;;;3.40;73.90;;;;;;5015460;28;20026;-74
2022/01/11 10:42:52;;;;;;;89.70;39.00;;;3.40;73.40;;;;;;5014205;28;20030;-73
2022/01/11 10:45:23;;;;;;;92.47;40.92;;;3.50;73.30;;;;;;5018639;28;20109;-73
2022/01/11 10:47:58;;;;;;;91.25;40.03;;;3.60;73.10;;;;;;5023975;28;20478;-74
2022/01/11 10:50:28;;;;;;;89.38;39.55;;;3.60;72.30;;;;;;5014061;28;20034;-75
2022/01/11 10:52:56;;;;;;;87.53;38.53;;;3.70;72.20;;;;;;5015905;28;20352;-78
2022/01/11 10:55:26;;;;;;;90.90;41.40;;;3.70;71.80;;;;;;4998082;28;20048;-76
2022/01/11 10:57:58;;;;;;;96.13;39.83;;;3.80;71.50;;;;;;4998027;28;20030;-74
2022/01/11 11:00:34;;;;;;;89.78;39.45;;;3.90;70.80;;;;;;5013860;28;20030;-74
2022/01/11 11:03:05;;;;;;;92.88;40.72;;;4.00;71.60;;;;;;5015100;28;20386;-74
2022/01/11 11:05:53;;;;;;;81.35;37.55;;;3.90;70.30;;;;;;5014844;28;20036;-75
2022/01/11 11:08:23;;;;;;;87.65;38.85;;;3.80;69.20;;;;;;4997228;28;20022;-75
2022/01/11 11:10:59;;;;;;;83.55;40.13;;;3.60;69.20;;;;;;5014962;28;20097;-75
2022/01/11 11:13:26;;;;;;;95.47;41.05;;;3.50;70.30;;;;;;5014957;28;20025;-75
2022/01/11 11:16:13;;;;;;;80.93;37.33;;;3.50;71.60;;;;;;5014619;28;20033;-75
2022/01/11 11:18:43;;;;;;;92.97;40.17;;;3.50;71.00;;;;;;5013170;28;20022;-75
2022/01/11 11:21:15;;;;;;;94.18;41.20;;;3.50;71.10;;;;;;5013564;28;20519;-75
2022/01/11 11:23:41;;;;;;;83.70;38.42;;;3.50;70.90;;;;;;4996638;28;20053;-76
2022/01/11 11:26:06;;;;;;;108.30;46.80;;;3.40;70.10;;;;;;5014496;28;20427;-78
2022/01/11 11:28:32;;;;;;;94.18;40.92;;;3.40;70.50;;;;;;4996790;28;20072;-74
2022/01/11 11:30:58;;;;;;;94.72;43.30;;;3.40;71.70;;;;;;5013339;28;20462;-75
2022/01/11 11:33:25;;;;;;;89.60;41.88;;;3.40;71.00;;;;;;5012468;28;20097;-74
2022/01/11 11:35:51;;;;;;;88.68;42.13;;;3.40;71.80;;;;;;5012188;28;20030;-75
2022/01/11 11:38:19;;;;;;;95.82;42.22;;;3.30;71.30;;;;;;4994860;28;20049;-75
2022/01/11 11:40:50;;;;;;;84.80;39.33;;;3.30;70.70;;;;;;5012479;28;20082;-74
2022/01/11 11:43:15;;;;;;;93.20;41.88;;;3.40;70.50;;;;;;5012100;28;20116;-74
2022/01/11 11:45:43;;;;;;;83.55;39.60;;;3.40;71.00;;;;;;5012949;28;20105;-74
2022/01/11 11:48:11;;;;;;;86.55;39.53;;;3.30;70.60;;;;;;5014501;28;20517;-74
2022/01/11 11:50:53;;;;;;;90.85;37.15;;;3.30;70.20;;;;;;5014197;28;20033;-74
2022/01/11 11:53:35;;;;;;;69.75;29.98;;;3.20;69.70;;;;;;5014032;28;20054;-75
2022/01/11 11:56:26;;;;;;;63.55;29.35;;;3.10;68.30;;;;;;5013851;28;20022;-75
2022/01/11 11:58:55;;;;;;;69.25;27.73;;;3.00;68.70;;;;;;5013879;28;20030;-75
2022/01/11 12:01:42;;;;;;;57.10;27.23;;;3.00;69.10;;;;;;5014118;28;20033;-73
2022/01/11 12:04:36;;;;;;;52.50;25.35;;;3.00;68.40;;;;;;5014374;28;20037;-74
2022/01/11 12:07:27;;;;;;;56.67;25.08;;;3.00;67.80;;;;;;5013694;28;20045;-75
2022/01/11 12:09:52;;;;;;;53.88;23.75;;;3.00;68.10;;;;;;4995820;28;20105;-76
2022/01/11 12:12:49;;;;;;;56.55;25.92;;;2.90;67.50;;;;;;4996009;28;20021;-75
2022/01/11 12:15:34;;;;;;;51.42;23.05;;;2.90;67.90;;;;;;5010588;28;20038;-75
2022/01/11 12:17:59;;;;;;;56.13;24.48;;;2.90;68.50;;;;;;5013743;28;20096;-75
2022/01/11 12:20:49;;;;;;;51.22;23.13;;;2.90;67.90;;;;;;5013666;28;20554;-75
2022/01/11 12:23:33;;;;;;;49.38;23.48;;;3.00;67.70;;;;;;5013590;28;20018;-75
2022/01/11 12:26:13;;;;;;;52.53;22.60;;;3.00;67.80;;;;;;4976573;28;20090;-76
2022/01/11 12:28:39;;;;;;;48.05;20.95;;;3.00;67.40;;;;;;4976263;28;20113;-75
2022/01/11 12:31:25;;;;;;;43.92;20.95;;;3.00;67.00;;;;;;4993906;28;20171;-75
2022/01/11 12:33:52;;;;;;;53.92;23.90;;;3.00;66.20;;;;;;4994091;28;20030;-74
2022/01/11 12:36:17;;;;;;;53.47;24.20;;;3.00;67.20;;;;;;4993800;28;20023;-74
2022/01/11 12:39:06;;;;;;;55.33;22.77;;;3.00;66.40;;;;;;4994062;28;20132;-74
2022/01/11 12:41:34;;;;;;;50.95;23.23;;;3.00;66.50;;;;;;4993834;28;20034;-74
2022/01/11 12:44:27;;;;;;;52.50;22.67;;;2.90;66.40;;;;;;4993928;28;20387;-75
2022/01/11 12:47:01;;;;;;;55.17;24.90;;;3.00;67.10;;;;;;4993647;28;20022;-75